sensor_id;sensor_type;location;lat;lon;timestamp;P1;durP1;ratioP1;P2;durP2;ratioP2
20657;SDS011;10488;50.846;4.078;2024-01-30T00:01:22;15.30;;;8.32;;
20657;SDS011;10488;50.846;4.078;2024-01-30T00:03:47;11.57;;;7.70;;
20657;SDS011;10488;50.846;4.078;2024-01-30T00:06:13;12.50;;;7.65;;
20657;SDS011;10488;50.846;4.078;2024-01-30T00:08:39;11.07;;;7.05;;
20657;SDS011;10488;50.846;4.078;2024-01-30T00:11:04;14.73;;;8.32;;
20657;SDS011;10488;50.846;4.078;2024-01-30T00:13:30;13.02;;;7.85;;
20657;SDS011;10488;50.846;4.078;2024-01-30T00:15:56;13.50;;;8.13;;
20657;SDS011;10488;50.846;4.078;2024-01-30T00:18:21;16.67;;;8.40;;
20657;SDS011;10488;50.846;4.078;2024-01-30T00:20:47;15.93;;;8.27;;
20657;SDS011;10488;50.846;4.078;2024-01-30T00:23:12;12.05;;;8.15;;
20657;SDS011;10488;50.846;4.078;2024-01-30T00:25:38;12.77;;;7.85;;
20657;SDS011;10488;50.846;4.078;2024-01-30T00:28:04;13.00;;;8.35;;
20657;SDS011;10488;50.846;4.078;2024-01-30T00:30:29;12.73;;;8.13;;
20657;SDS011;10488;50.846;4.078;2024-01-30T00:32:55;11.45;;;7.85;;
20657;SDS011;10488;50.846;4.078;2024-01-30T00:35:20;12.10;;;7.50;;
20657;SDS011;10488;50.846;4.078;2024-01-30T00:37:47;14.63;;;7.75;;
20657;SDS011;10488;50.846;4.078;2024-01-30T00:40:13;14.18;;;8.23;;
20657;SDS011;10488;50.846;4.078;2024-01-30T00:42:43;12.88;;;7.70;;
20657;SDS011;10488;50.846;4.078;2024-01-30T00:45:16;14.50;;;7.80;;
20657;SDS011;10488;50.846;4.078;2024-01-30T00:47:42;8.90;;;7.32;;
20657;SDS011;10488;50.846;4.078;2024-01-30T00:50:08;14.60;;;8.05;;
20657;SDS011;10488;50.846;4.078;2024-01-30T00:52:34;12.35;;;7.55;;
20657;SDS011;10488;50.846;4.078;2024-01-30T00:55:01;11.88;;;7.25;;
20657;SDS011;10488;50.846;4.078;2024-01-30T00:57:27;13.20;;;7.10;;
20657;SDS011;10488;50.846;4.078;2024-01-30T00:59:53;12.05;;;7.38;;
20657;SDS011;10488;50.846;4.078;2024-01-30T01:02:19;13.57;;;7.28;;
20657;SDS011;10488;50.846;4.078;2024-01-30T01:04:45;10.13;;;7.10;;
20657;SDS011;10488;50.846;4.078;2024-01-30T01:07:11;8.98;;;6.63;;
20657;SDS011;10488;50.846;4.078;2024-01-30T01:09:37;10.27;;;6.65;;
20657;SDS011;10488;50.846;4.078;2024-01-30T01:12:03;9.45;;;6.82;;
20657;SDS011;10488;50.846;4.078;2024-01-30T01:14:29;9.68;;;6.30;;
20657;SDS011;10488;50.846;4.078;2024-01-30T01:16:55;10.90;;;6.68;;
20657;SDS011;10488;50.846;4.078;2024-01-30T01:19:21;11.18;;;6.53;;
20657;SDS011;10488;50.846;4.078;2024-01-30T01:21:47;13.32;;;6.85;;
20657;SDS011;10488;50.846;4.078;2024-01-30T01:24:12;13.13;;;6.88;;
20657;SDS011;10488;50.846;4.078;2024-01-30T01:26:38;10.15;;;7.07;;
20657;SDS011;10488;50.846;4.078;2024-01-30T01:29:04;10.23;;;6.70;;
20657;SDS011;10488;50.846;4.078;2024-01-30T01:31:36;9.90;;;6.40;;
20657;SDS011;10488;50.846;4.078;2024-01-30T01:34:11;11.18;;;6.70;;
20657;SDS011;10488;50.846;4.078;2024-01-30T01:36:38;11.38;;;6.93;;
20657;SDS011;10488;50.846;4.078;2024-01-30T01:39:04;11.68;;;6.93;;
20657;SDS011;10488;50.846;4.078;2024-01-30T01:41:32;7.97;;;5.95;;
20657;SDS011;10488;50.846;4.078;2024-01-30T01:43:58;11.25;;;7.05;;
20657;SDS011;10488;50.846;4.078;2024-01-30T01:46:26;11.25;;;6.20;;
20657;SDS011;10488;50.846;4.078;2024-01-30T01:48:54;10.43;;;6.40;;
20657;SDS011;10488;50.846;4.078;2024-01-30T01:51:21;9.15;;;6.93;;
20657;SDS011;10488;50.846;4.078;2024-01-30T01:53:48;12.18;;;7.03;;
20657;SDS011;10488;50.846;4.078;2024-01-30T01:56:13;11.20;;;6.45;;
20657;SDS011;10488;50.846;4.078;2024-01-30T01:58:40;13.98;;;7.28;;
20657;SDS011;10488;50.846;4.078;2024-01-30T02:01:06;11.55;;;7.18;;
20657;SDS011;10488;50.846;4.078;2024-01-30T02:03:33;12.82;;;6.35;;
20657;SDS011;10488;50.846;4.078;2024-01-30T02:05:59;10.15;;;6.97;;
20657;SDS011;10488;50.846;4.078;2024-01-30T02:08:27;14.57;;;6.40;;
20657;SDS011;10488;50.846;4.078;2024-01-30T02:10:53;8.77;;;6.28;;
20657;SDS011;10488;50.846;4.078;2024-01-30T02:13:19;11.77;;;6.68;;
20657;SDS011;10488;50.846;4.078;2024-01-30T02:15:48;14.30;;;6.45;;
20657;SDS011;10488;50.846;4.078;2024-01-30T02:18:15;9.48;;;7.10;;
20657;SDS011;10488;50.846;4.078;2024-01-30T02:20:41;10.85;;;6.40;;
20657;SDS011;10488;50.846;4.078;2024-01-30T02:23:07;8.00;;;6.47;;
20657;SDS011;10488;50.846;4.078;2024-01-30T02:25:39;9.07;;;5.75;;
20657;SDS011;10488;50.846;4.078;2024-01-30T02:28:13;8.60;;;6.30;;
20657;SDS011;10488;50.846;4.078;2024-01-30T02:30:40;10.15;;;6.70;;
20657;SDS011;10488;50.846;4.078;2024-01-30T02:33:07;11.25;;;6.35;;
20657;SDS011;10488;50.846;4.078;2024-01-30T02:35:33;10.00;;;6.07;;
20657;SDS011;10488;50.846;4.078;2024-01-30T02:37:59;11.13;;;6.00;;
20657;SDS011;10488;50.846;4.078;2024-01-30T02:40:25;7.40;;;5.75;;
20657;SDS011;10488;50.846;4.078;2024-01-30T02:42:50;8.63;;;6.28;;
20657;SDS011;10488;50.846;4.078;2024-01-30T02:45:16;9.02;;;6.18;;
20657;SDS011;10488;50.846;4.078;2024-01-30T02:47:42;10.23;;;6.22;;
20657;SDS011;10488;50.846;4.078;2024-01-30T02:50:08;10.73;;;6.40;;
20657;SDS011;10488;50.846;4.078;2024-01-30T02:52:33;13.13;;;6.45;;
20657;SDS011;10488;50.846;4.078;2024-01-30T02:54:59;11.77;;;6.50;;
20657;SDS011;10488;50.846;4.078;2024-01-30T02:57:25;10.45;;;6.28;;
20657;SDS011;10488;50.846;4.078;2024-01-30T02:59:51;8.20;;;6.18;;
20657;SDS011;10488;50.846;4.078;2024-01-30T03:02:16;9.90;;;6.68;;
20657;SDS011;10488;50.846;4.078;2024-01-30T03:04:42;11.60;;;6.30;;
20657;SDS011;10488;50.846;4.078;2024-01-30T03:07:08;11.85;;;5.47;;
20657;SDS011;10488;50.846;4.078;2024-01-30T03:09:34;8.48;;;5.40;;
20657;SDS011;10488;50.846;4.078;2024-01-30T03:12:00;8.15;;;5.78;;
20657;SDS011;10488;50.846;4.078;2024-01-30T03:14:26;11.18;;;7.05;;
20657;SDS011;10488;50.846;4.078;2024-01-30T03:16:51;11.90;;;6.43;;
20657;SDS011;10488;50.846;4.078;2024-01-30T03:19:17;9.50;;;6.00;;
20657;SDS011;10488;50.846;4.078;2024-01-30T03:21:43;8.77;;;6.10;;
20657;SDS011;10488;50.846;4.078;2024-01-30T03:24:09;8.55;;;6.05;;
20657;SDS011;10488;50.846;4.078;2024-01-30T03:26:35;10.23;;;5.90;;
20657;SDS011;10488;50.846;4.078;2024-01-30T03:29:01;9.65;;;5.57;;
20657;SDS011;10488;50.846;4.078;2024-01-30T03:31:26;10.23;;;5.90;;
20657;SDS011;10488;50.846;4.078;2024-01-30T03:33:52;11.82;;;6.32;;
20657;SDS011;10488;50.846;4.078;2024-01-30T03:36:18;10.23;;;5.93;;
20657;SDS011;10488;50.846;4.078;2024-01-30T03:38:43;8.75;;;6.13;;
20657;SDS011;10488;50.846;4.078;2024-01-30T03:41:09;10.43;;;6.38;;
20657;SDS011;10488;50.846;4.078;2024-01-30T03:43:35;12.82;;;6.60;;
20657;SDS011;10488;50.846;4.078;2024-01-30T03:46:01;11.20;;;6.80;;
20657;SDS011;10488;50.846;4.078;2024-01-30T03:48:28;11.95;;;7.22;;
20657;SDS011;10488;50.846;4.078;2024-01-30T03:50:54;9.35;;;6.22;;
20657;SDS011;10488;50.846;4.078;2024-01-30T03:53:19;11.48;;;6.90;;
20657;SDS011;10488;50.846;4.078;2024-01-30T03:55:45;18.80;;;7.68;;
20657;SDS011;10488;50.846;4.078;2024-01-30T03:58:11;10.75;;;7.07;;
20657;SDS011;10488;50.846;4.078;2024-01-30T04:00:36;12.15;;;6.70;;
20657;SDS011;10488;50.846;4.078;2024-01-30T04:03:02;10.82;;;6.75;;
20657;SDS011;10488;50.846;4.078;2024-01-30T04:05:28;12.60;;;6.97;;
20657;SDS011;10488;50.846;4.078;2024-01-30T04:07:54;11.68;;;6.50;;
20657;SDS011;10488;50.846;4.078;2024-01-30T04:10:19;10.63;;;6.38;;
20657;SDS011;10488;50.846;4.078;2024-01-30T04:12:45;10.98;;;6.93;;
20657;SDS011;10488;50.846;4.078;2024-01-30T04:15:10;14.45;;;7.00;;
20657;SDS011;10488;50.846;4.078;2024-01-30T04:17:36;11.57;;;6.70;;
20657;SDS011;10488;50.846;4.078;2024-01-30T04:20:02;8.70;;;6.43;;
20657;SDS011;10488;50.846;4.078;2024-01-30T04:22:28;11.80;;;6.32;;
20657;SDS011;10488;50.846;4.078;2024-01-30T04:24:53;11.13;;;6.72;;
20657;SDS011;10488;50.846;4.078;2024-01-30T04:27:19;7.85;;;6.32;;
20657;SDS011;10488;50.846;4.078;2024-01-30T04:29:44;10.18;;;6.38;;
20657;SDS011;10488;50.846;4.078;2024-01-30T04:32:10;7.75;;;5.97;;
20657;SDS011;10488;50.846;4.078;2024-01-30T04:34:36;13.60;;;7.30;;
20657;SDS011;10488;50.846;4.078;2024-01-30T04:37:02;11.32;;;6.35;;
20657;SDS011;10488;50.846;4.078;2024-01-30T04:39:28;11.32;;;6.90;;
20657;SDS011;10488;50.846;4.078;2024-01-30T04:41:53;10.20;;;7.15;;
20657;SDS011;10488;50.846;4.078;2024-01-30T04:44:19;11.52;;;7.22;;
20657;SDS011;10488;50.846;4.078;2024-01-30T04:46:45;13.70;;;6.57;;
20657;SDS011;10488;50.846;4.078;2024-01-30T04:49:10;11.15;;;7.07;;
20657;SDS011;10488;50.846;4.078;2024-01-30T04:51:36;14.30;;;7.45;;
20657;SDS011;10488;50.846;4.078;2024-01-30T04:54:02;17.20;;;7.47;;
20657;SDS011;10488;50.846;4.078;2024-01-30T04:56:27;14.73;;;7.53;;
20657;SDS011;10488;50.846;4.078;2024-01-30T04:58:53;13.63;;;7.78;;
20657;SDS011;10488;50.846;4.078;2024-01-30T05:01:19;15.43;;;7.18;;
20657;SDS011;10488;50.846;4.078;2024-01-30T05:03:44;13.38;;;6.72;;
20657;SDS011;10488;50.846;4.078;2024-01-30T05:06:10;11.13;;;7.18;;
20657;SDS011;10488;50.846;4.078;2024-01-30T05:08:35;13.55;;;8.23;;
20657;SDS011;10488;50.846;4.078;2024-01-30T05:11:05;15.35;;;7.22;;
20657;SDS011;10488;50.846;4.078;2024-01-30T05:13:31;13.63;;;8.23;;
20657;SDS011;10488;50.846;4.078;2024-01-30T05:15:56;20.52;;;7.97;;
20657;SDS011;10488;50.846;4.078;2024-01-30T05:18:22;16.02;;;8.05;;
20657;SDS011;10488;50.846;4.078;2024-01-30T05:20:49;16.98;;;8.43;;
20657;SDS011;10488;50.846;4.078;2024-01-30T05:23:15;17.17;;;8.80;;
20657;SDS011;10488;50.846;4.078;2024-01-30T05:25:41;20.52;;;8.73;;
20657;SDS011;10488;50.846;4.078;2024-01-30T05:28:07;18.48;;;8.25;;
20657;SDS011;10488;50.846;4.078;2024-01-30T05:30:33;18.13;;;9.45;;
20657;SDS011;10488;50.846;4.078;2024-01-30T05:32:58;15.63;;;8.90;;
20657;SDS011;10488;50.846;4.078;2024-01-30T05:35:24;19.75;;;8.73;;
20657;SDS011;10488;50.846;4.078;2024-01-30T05:37:51;18.67;;;9.30;;
20657;SDS011;10488;50.846;4.078;2024-01-30T05:40:16;16.98;;;8.45;;
20657;SDS011;10488;50.846;4.078;2024-01-30T05:42:42;17.13;;;8.00;;
20657;SDS011;10488;50.846;4.078;2024-01-30T05:45:08;20.02;;;8.60;;
20657;SDS011;10488;50.846;4.078;2024-01-30T05:47:36;17.90;;;8.57;;
20657;SDS011;10488;50.846;4.078;2024-01-30T05:50:02;16.45;;;9.52;;
20657;SDS011;10488;50.846;4.078;2024-01-30T05:52:28;21.70;;;9.32;;
20657;SDS011;10488;50.846;4.078;2024-01-30T05:54:54;17.27;;;8.85;;
20657;SDS011;10488;50.846;4.078;2024-01-30T05:57:19;19.98;;;8.73;;
20657;SDS011;10488;50.846;4.078;2024-01-30T05:59:45;20.63;;;8.98;;
20657;SDS011;10488;50.846;4.078;2024-01-30T06:02:12;19.83;;;9.55;;
20657;SDS011;10488;50.846;4.078;2024-01-30T06:04:38;19.55;;;8.50;;
20657;SDS011;10488;50.846;4.078;2024-01-30T06:07:04;15.95;;;9.52;;
20657;SDS011;10488;50.846;4.078;2024-01-30T06:09:31;20.05;;;9.32;;
20657;SDS011;10488;50.846;4.078;2024-01-30T06:11:57;18.65;;;8.52;;
20657;SDS011;10488;50.846;4.078;2024-01-30T06:14:23;10.63;;;7.82;;
20657;SDS011;10488;50.846;4.078;2024-01-30T06:16:48;14.77;;;7.60;;
20657;SDS011;10488;50.846;4.078;2024-01-30T06:19:14;13.75;;;7.95;;
20657;SDS011;10488;50.846;4.078;2024-01-30T06:21:40;11.13;;;7.32;;
20657;SDS011;10488;50.846;4.078;2024-01-30T06:24:05;14.70;;;7.57;;
20657;SDS011;10488;50.846;4.078;2024-01-30T06:26:31;11.98;;;8.00;;
20657;SDS011;10488;50.846;4.078;2024-01-30T06:28:57;12.57;;;7.30;;
20657;SDS011;10488;50.846;4.078;2024-01-30T06:31:22;11.15;;;7.57;;
20657;SDS011;10488;50.846;4.078;2024-01-30T06:33:48;10.85;;;7.32;;
20657;SDS011;10488;50.846;4.078;2024-01-30T06:36:14;9.93;;;6.60;;
20657;SDS011;10488;50.846;4.078;2024-01-30T06:38:40;9.82;;;6.47;;
20657;SDS011;10488;50.846;4.078;2024-01-30T06:41:06;13.15;;;6.25;;
20657;SDS011;10488;50.846;4.078;2024-01-30T06:43:32;11.30;;;6.45;;
20657;SDS011;10488;50.846;4.078;2024-01-30T06:45:57;12.15;;;6.28;;
20657;SDS011;10488;50.846;4.078;2024-01-30T06:48:24;11.70;;;6.55;;
20657;SDS011;10488;50.846;4.078;2024-01-30T06:50:53;9.98;;;6.63;;
20657;SDS011;10488;50.846;4.078;2024-01-30T06:53:19;11.60;;;6.45;;
20657;SDS011;10488;50.846;4.078;2024-01-30T06:55:45;11.10;;;6.18;;
20657;SDS011;10488;50.846;4.078;2024-01-30T06:58:11;8.77;;;6.20;;
20657;SDS011;10488;50.846;4.078;2024-01-30T07:00:37;10.70;;;6.60;;
20657;SDS011;10488;50.846;4.078;2024-01-30T07:03:03;13.35;;;6.78;;
20657;SDS011;10488;50.846;4.078;2024-01-30T07:05:28;9.55;;;6.95;;
20657;SDS011;10488;50.846;4.078;2024-01-30T07:07:54;11.27;;;6.97;;
20657;SDS011;10488;50.846;4.078;2024-01-30T07:10:19;11.30;;;6.18;;
20657;SDS011;10488;50.846;4.078;2024-01-30T07:12:45;12.40;;;6.90;;
20657;SDS011;10488;50.846;4.078;2024-01-30T07:15:11;9.25;;;6.65;;
20657;SDS011;10488;50.846;4.078;2024-01-30T07:17:39;12.88;;;6.60;;
20657;SDS011;10488;50.846;4.078;2024-01-30T07:20:05;14.07;;;7.18;;
20657;SDS011;10488;50.846;4.078;2024-01-30T07:22:32;10.75;;;7.03;;
20657;SDS011;10488;50.846;4.078;2024-01-30T07:24:58;9.65;;;7.07;;
20657;SDS011;10488;50.846;4.078;2024-01-30T07:27:24;11.95;;;6.50;;
20657;SDS011;10488;50.846;4.078;2024-01-30T07:29:49;9.60;;;6.75;;
20657;SDS011;10488;50.846;4.078;2024-01-30T07:32:15;11.02;;;7.07;;
20657;SDS011;10488;50.846;4.078;2024-01-30T07:34:41;12.65;;;6.28;;
20657;SDS011;10488;50.846;4.078;2024-01-30T07:37:06;9.57;;;6.40;;
20657;SDS011;10488;50.846;4.078;2024-01-30T07:39:33;10.05;;;6.93;;
20657;SDS011;10488;50.846;4.078;2024-01-30T07:41:59;11.30;;;6.72;;
20657;SDS011;10488;50.846;4.078;2024-01-30T07:44:25;10.85;;;6.53;;
20657;SDS011;10488;50.846;4.078;2024-01-30T07:46:51;9.15;;;6.50;;
20657;SDS011;10488;50.846;4.078;2024-01-30T07:49:16;13.18;;;6.38;;
20657;SDS011;10488;50.846;4.078;2024-01-30T07:51:42;14.75;;;6.20;;
20657;SDS011;10488;50.846;4.078;2024-01-30T07:54:08;12.18;;;7.07;;
20657;SDS011;10488;50.846;4.078;2024-01-30T07:56:34;12.75;;;6.40;;
20657;SDS011;10488;50.846;4.078;2024-01-30T07:59:00;10.82;;;6.25;;
20657;SDS011;10488;50.846;4.078;2024-01-30T08:01:25;10.93;;;7.20;;
20657;SDS011;10488;50.846;4.078;2024-01-30T08:03:51;10.15;;;6.40;;
20657;SDS011;10488;50.846;4.078;2024-01-30T08:06:17;12.30;;;7.57;;
20657;SDS011;10488;50.846;4.078;2024-01-30T08:08:42;8.77;;;6.53;;
20657;SDS011;10488;50.846;4.078;2024-01-30T08:11:08;13.60;;;7.18;;
20657;SDS011;10488;50.846;4.078;2024-01-30T08:13:34;10.50;;;6.75;;
20657;SDS011;10488;50.846;4.078;2024-01-30T08:15:59;15.55;;;7.68;;
20657;SDS011;10488;50.846;4.078;2024-01-30T08:18:25;11.98;;;6.43;;
20657;SDS011;10488;50.846;4.078;2024-01-30T08:20:51;10.23;;;6.55;;
20657;SDS011;10488;50.846;4.078;2024-01-30T08:23:17;10.73;;;6.60;;
20657;SDS011;10488;50.846;4.078;2024-01-30T08:25:42;12.13;;;7.00;;
20657;SDS011;10488;50.846;4.078;2024-01-30T08:28:08;10.23;;;6.60;;
20657;SDS011;10488;50.846;4.078;2024-01-30T08:30:34;11.77;;;6.97;;
20657;SDS011;10488;50.846;4.078;2024-01-30T08:33:02;10.85;;;6.68;;
20657;SDS011;10488;50.846;4.078;2024-01-30T08:35:28;11.95;;;7.05;;
20657;SDS011;10488;50.846;4.078;2024-01-30T08:37:56;17.90;;;7.78;;
20657;SDS011;10488;50.846;4.078;2024-01-30T08:40:22;10.93;;;6.70;;
20657;SDS011;10488;50.846;4.078;2024-01-30T08:42:47;9.45;;;7.07;;
20657;SDS011;10488;50.846;4.078;2024-01-30T08:45:13;10.52;;;7.63;;
20657;SDS011;10488;50.846;4.078;2024-01-30T08:47:40;10.95;;;7.10;;
20657;SDS011;10488;50.846;4.078;2024-01-30T08:50:05;20.48;;;8.25;;
20657;SDS011;10488;50.846;4.078;2024-01-30T08:52:32;12.30;;;7.07;;
20657;SDS011;10488;50.846;4.078;2024-01-30T08:54:59;14.85;;;8.10;;
20657;SDS011;10488;50.846;4.078;2024-01-30T08:57:25;13.65;;;6.80;;
20657;SDS011;10488;50.846;4.078;2024-01-30T08:59:53;14.88;;;8.13;;
20657;SDS011;10488;50.846;4.078;2024-01-30T09:02:19;12.90;;;7.88;;
20657;SDS011;10488;50.846;4.078;2024-01-30T09:04:46;12.93;;;8.40;;
20657;SDS011;10488;50.846;4.078;2024-01-30T09:07:11;12.10;;;7.65;;
20657;SDS011;10488;50.846;4.078;2024-01-30T09:09:38;12.75;;;6.97;;
20657;SDS011;10488;50.846;4.078;2024-01-30T09:12:07;14.02;;;7.65;;
20657;SDS011;10488;50.846;4.078;2024-01-30T09:14:34;12.90;;;7.57;;
20657;SDS011;10488;50.846;4.078;2024-01-30T09:17:01;15.43;;;7.35;;
20657;SDS011;10488;50.846;4.078;2024-01-30T09:19:28;12.98;;;7.03;;
20657;SDS011;10488;50.846;4.078;2024-01-30T09:21:54;16.05;;;7.20;;
20657;SDS011;10488;50.846;4.078;2024-01-30T09:24:19;16.30;;;8.57;;
20657;SDS011;10488;50.846;4.078;2024-01-30T09:26:45;20.27;;;8.80;;
20657;SDS011;10488;50.846;4.078;2024-01-30T09:29:10;18.52;;;7.93;;
20657;SDS011;10488;50.846;4.078;2024-01-30T09:31:36;14.90;;;8.77;;
20657;SDS011;10488;50.846;4.078;2024-01-30T09:34:02;16.88;;;9.48;;
20657;SDS011;10488;50.846;4.078;2024-01-30T09:36:27;20.90;;;9.50;;
20657;SDS011;10488;50.846;4.078;2024-01-30T09:38:53;20.13;;;10.02;;
20657;SDS011;10488;50.846;4.078;2024-01-30T09:41:19;19.85;;;9.80;;
20657;SDS011;10488;50.846;4.078;2024-01-30T09:43:49;24.77;;;10.18;;
20657;SDS011;10488;50.846;4.078;2024-01-30T09:46:17;16.00;;;8.73;;
20657;SDS011;10488;50.846;4.078;2024-01-30T09:48:48;15.50;;;8.95;;
20657;SDS011;10488;50.846;4.078;2024-01-30T09:51:14;18.83;;;8.25;;
20657;SDS011;10488;50.846;4.078;2024-01-30T09:53:42;16.85;;;7.00;;
20657;SDS011;10488;50.846;4.078;2024-01-30T09:56:09;17.83;;;8.88;;
20657;SDS011;10488;50.846;4.078;2024-01-30T09:58:34;18.50;;;8.32;;
20657;SDS011;10488;50.846;4.078;2024-01-30T10:01:00;17.92;;;8.65;;
20657;SDS011;10488;50.846;4.078;2024-01-30T10:03:26;24.88;;;8.90;;
20657;SDS011;10488;50.846;4.078;2024-01-30T10:05:52;22.55;;;8.95;;
20657;SDS011;10488;50.846;4.078;2024-01-30T10:08:18;19.65;;;8.77;;
20657;SDS011;10488;50.846;4.078;2024-01-30T10:10:46;18.88;;;9.65;;
20657;SDS011;10488;50.846;4.078;2024-01-30T10:13:12;18.17;;;9.75;;
20657;SDS011;10488;50.846;4.078;2024-01-30T10:15:38;14.98;;;9.10;;
20657;SDS011;10488;50.846;4.078;2024-01-30T10:18:05;13.52;;;8.52;;
20657;SDS011;10488;50.846;4.078;2024-01-30T10:20:32;19.05;;;9.32;;
20657;SDS011;10488;50.846;4.078;2024-01-30T10:22:58;17.23;;;9.25;;
20657;SDS011;10488;50.846;4.078;2024-01-30T10:25:25;19.73;;;11.35;;
20657;SDS011;10488;50.846;4.078;2024-01-30T10:27:54;25.73;;;9.10;;
20657;SDS011;10488;50.846;4.078;2024-01-30T10:30:23;17.20;;;7.90;;
20657;SDS011;10488;50.846;4.078;2024-01-30T10:32:49;10.65;;;6.45;;
20657;SDS011;10488;50.846;4.078;2024-01-30T10:35:15;10.88;;;3.95;;
20657;SDS011;10488;50.846;4.078;2024-01-30T10:37:43;5.55;;;3.00;;
20657;SDS011;10488;50.846;4.078;2024-01-30T10:40:09;6.35;;;3.22;;
20657;SDS011;10488;50.846;4.078;2024-01-30T10:42:38;8.95;;;3.53;;
20657;SDS011;10488;50.846;4.078;2024-01-30T10:47:41;5.80;;;1.42;;
20657;SDS011;10488;50.846;4.078;2024-01-30T10:50:11;3.30;;;1.15;;
20657;SDS011;10488;50.846;4.078;2024-01-30T10:52:37;7.47;;;1.45;;
20657;SDS011;10488;50.846;4.078;2024-01-30T10:55:04;6.40;;;1.33;;
20657;SDS011;10488;50.846;4.078;2024-01-30T10:57:33;8.45;;;2.40;;
20657;SDS011;10488;50.846;4.078;2024-01-30T11:00:12;4.47;;;1.52;;
20657;SDS011;10488;50.846;4.078;2024-01-30T11:02:41;6.13;;;1.70;;
20657;SDS011;10488;50.846;4.078;2024-01-30T11:05:09;5.88;;;1.20;;
20657;SDS011;10488;50.846;4.078;2024-01-30T11:07:34;1.77;;;0.75;;
20657;SDS011;10488;50.846;4.078;2024-01-30T11:10:03;4.13;;;0.60;;
20657;SDS011;10488;50.846;4.078;2024-01-30T11:12:32;2.13;;;0.68;;
20657;SDS011;10488;50.846;4.078;2024-01-30T11:15:08;2.75;;;0.60;;
20657;SDS011;10488;50.846;4.078;2024-01-30T11:17:53;2.58;;;0.50;;
20657;SDS011;10488;50.846;4.078;2024-01-30T11:20:20;5.05;;;0.60;;
20657;SDS011;10488;50.846;4.078;2024-01-30T11:22:47;1.70;;;0.77;;
20657;SDS011;10488;50.846;4.078;2024-01-30T11:25:14;4.10;;;1.00;;
20657;SDS011;10488;50.846;4.078;2024-01-30T11:27:45;2.15;;;0.70;;
20657;SDS011;10488;50.846;4.078;2024-01-30T11:30:20;4.05;;;0.45;;
20657;SDS011;10488;50.846;4.078;2024-01-30T11:32:59;3.50;;;0.60;;
20657;SDS011;10488;50.846;4.078;2024-01-30T11:35:36;5.72;;;0.90;;
20657;SDS011;10488;50.846;4.078;2024-01-30T11:38:03;1.58;;;0.40;;
20657;SDS011;10488;50.846;4.078;2024-01-30T11:40:29;1.50;;;0.47;;
20657;SDS011;10488;50.846;4.078;2024-01-30T11:42:56;1.77;;;0.40;;
20657;SDS011;10488;50.846;4.078;2024-01-30T11:45:23;2.25;;;0.35;;
20657;SDS011;10488;50.846;4.078;2024-01-30T11:47:49;1.02;;;0.47;;
20657;SDS011;10488;50.846;4.078;2024-01-30T11:50:15;5.22;;;0.55;;
20657;SDS011;10488;50.846;4.078;2024-01-30T11:52:41;6.43;;;0.80;;
20657;SDS011;10488;50.846;4.078;2024-01-30T11:55:08;0.88;;;0.47;;
20657;SDS011;10488;50.846;4.078;2024-01-30T11:57:35;6.03;;;0.68;;
20657;SDS011;10488;50.846;4.078;2024-01-30T12:00:02;2.22;;;0.60;;
20657;SDS011;10488;50.846;4.078;2024-01-30T12:02:35;1.35;;;0.52;;
20657;SDS011;10488;50.846;4.078;2024-01-30T12:05:08;3.35;;;0.60;;
20657;SDS011;10488;50.846;4.078;2024-01-30T12:07:34;2.38;;;0.77;;
20657;SDS011;10488;50.846;4.078;2024-01-30T12:10:00;0.98;;;0.55;;
20657;SDS011;10488;50.846;4.078;2024-01-30T12:12:26;2.65;;;0.80;;
20657;SDS011;10488;50.846;4.078;2024-01-30T12:14:53;8.40;;;0.75;;
20657;SDS011;10488;50.846;4.078;2024-01-30T12:17:29;5.88;;;0.88;;
20657;SDS011;10488;50.846;4.078;2024-01-30T12:20:05;2.47;;;0.43;;
20657;SDS011;10488;50.846;4.078;2024-01-30T12:22:34;3.65;;;0.68;;
20657;SDS011;10488;50.846;4.078;2024-01-30T12:25:08;5.10;;;0.90;;
20657;SDS011;10488;50.846;4.078;2024-01-30T12:27:35;0.90;;;0.50;;
20657;SDS011;10488;50.846;4.078;2024-01-30T12:30:01;2.80;;;0.60;;
20657;SDS011;10488;50.846;4.078;2024-01-30T12:32:29;3.33;;;0.90;;
20657;SDS011;10488;50.846;4.078;2024-01-30T12:34:55;3.88;;;0.85;;
20657;SDS011;10488;50.846;4.078;2024-01-30T12:37:21;2.53;;;0.95;;
20657;SDS011;10488;50.846;4.078;2024-01-30T12:39:49;6.38;;;0.82;;
20657;SDS011;10488;50.846;4.078;2024-01-30T12:42:17;6.05;;;0.98;;
20657;SDS011;10488;50.846;4.078;2024-01-30T12:44:44;2.83;;;0.60;;
20657;SDS011;10488;50.846;4.078;2024-01-30T12:47:09;3.22;;;0.65;;
20657;SDS011;10488;50.846;4.078;2024-01-30T12:49:35;7.32;;;1.30;;
20657;SDS011;10488;50.846;4.078;2024-01-30T12:52:01;6.25;;;0.90;;
20657;SDS011;10488;50.846;4.078;2024-01-30T12:54:27;13.60;;;1.10;;
20657;SDS011;10488;50.846;4.078;2024-01-30T12:56:53;7.40;;;0.73;;
20657;SDS011;10488;50.846;4.078;2024-01-30T12:59:19;2.08;;;0.77;;
20657;SDS011;10488;50.846;4.078;2024-01-30T13:01:44;3.45;;;0.82;;
20657;SDS011;10488;50.846;4.078;2024-01-30T13:04:10;1.77;;;0.75;;
20657;SDS011;10488;50.846;4.078;2024-01-30T13:06:36;5.95;;;1.40;;
20657;SDS011;10488;50.846;4.078;2024-01-30T13:09:02;5.55;;;1.13;;
20657;SDS011;10488;50.846;4.078;2024-01-30T13:11:27;5.15;;;1.00;;
20657;SDS011;10488;50.846;4.078;2024-01-30T13:13:53;7.63;;;0.80;;
20657;SDS011;10488;50.846;4.078;2024-01-30T13:16:19;3.95;;;0.70;;
20657;SDS011;10488;50.846;4.078;2024-01-30T13:18:44;5.47;;;0.90;;
20657;SDS011;10488;50.846;4.078;2024-01-30T13:21:10;3.42;;;1.20;;
20657;SDS011;10488;50.846;4.078;2024-01-30T13:23:35;13.40;;;1.25;;
20657;SDS011;10488;50.846;4.078;2024-01-30T13:26:01;5.45;;;1.20;;
20657;SDS011;10488;50.846;4.078;2024-01-30T13:28:27;4.40;;;0.70;;
20657;SDS011;10488;50.846;4.078;2024-01-30T13:30:53;5.32;;;1.77;;
20657;SDS011;10488;50.846;4.078;2024-01-30T13:33:19;8.27;;;1.20;;
20657;SDS011;10488;50.846;4.078;2024-01-30T13:35:44;11.32;;;1.67;;
20657;SDS011;10488;50.846;4.078;2024-01-30T13:38:10;4.53;;;1.45;;
20657;SDS011;10488;50.846;4.078;2024-01-30T13:40:36;5.65;;;1.50;;
20657;SDS011;10488;50.846;4.078;2024-01-30T13:43:02;3.00;;;1.50;;
20657;SDS011;10488;50.846;4.078;2024-01-30T13:45:27;4.90;;;1.55;;
20657;SDS011;10488;50.846;4.078;2024-01-30T13:47:53;2.33;;;0.98;;
20657;SDS011;10488;50.846;4.078;2024-01-30T13:50:19;5.32;;;1.30;;
20657;SDS011;10488;50.846;4.078;2024-01-30T13:52:45;5.38;;;1.52;;
20657;SDS011;10488;50.846;4.078;2024-01-30T13:55:11;3.58;;;2.10;;
20657;SDS011;10488;50.846;4.078;2024-01-30T13:57:36;2.70;;;1.30;;
20657;SDS011;10488;50.846;4.078;2024-01-30T14:00:03;3.45;;;1.40;;
20657;SDS011;10488;50.846;4.078;2024-01-30T14:02:32;6.32;;;1.52;;
20657;SDS011;10488;50.846;4.078;2024-01-30T14:04:57;7.60;;;1.45;;
20657;SDS011;10488;50.846;4.078;2024-01-30T14:07:23;6.03;;;1.70;;
20657;SDS011;10488;50.846;4.078;2024-01-30T14:09:49;7.53;;;1.65;;
20657;SDS011;10488;50.846;4.078;2024-01-30T14:12:15;3.30;;;1.02;;
20657;SDS011;10488;50.846;4.078;2024-01-30T14:14:41;7.05;;;1.20;;
20657;SDS011;10488;50.846;4.078;2024-01-30T14:17:06;4.47;;;1.08;;
20657;SDS011;10488;50.846;4.078;2024-01-30T14:19:35;5.45;;;1.00;;
20657;SDS011;10488;50.846;4.078;2024-01-30T14:22:01;5.10;;;0.93;;
20657;SDS011;10488;50.846;4.078;2024-01-30T14:24:27;6.07;;;1.88;;
20657;SDS011;10488;50.846;4.078;2024-01-30T14:26:52;5.45;;;1.15;;
20657;SDS011;10488;50.846;4.078;2024-01-30T14:29:18;4.18;;;1.00;;
20657;SDS011;10488;50.846;4.078;2024-01-30T14:31:44;6.93;;;1.35;;
20657;SDS011;10488;50.846;4.078;2024-01-30T14:34:10;7.88;;;1.00;;
20657;SDS011;10488;50.846;4.078;2024-01-30T14:36:38;2.97;;;1.05;;